createdAt,value
2023-01-17T00:02:13.270Z,17.23
2023-01-17T00:04:59.102Z,16.73
2023-01-17T00:07:45.523Z,20.23
2023-01-17T00:10:15.765Z,23.37
2023-01-17T00:12:48.663Z,21.33
2023-01-17T00:15:20.118Z,22.17
2023-01-17T00:17:49.266Z,18.87
2023-01-17T00:20:36.033Z,20.30
2023-01-17T00:23:25.001Z,19.10
2023-01-17T00:26:05.934Z,19.23
2023-01-17T00:28:35.619Z,19.93
2023-01-17T00:31:05.429Z,16.97
2023-01-17T00:33:33.520Z,16.67
2023-01-17T00:36:01.618Z,17.80
2023-01-17T00:38:30.716Z,17.17
2023-01-17T00:41:02.721Z,13.53
2023-01-17T00:43:49.513Z,13.90
2023-01-17T00:46:37.966Z,11.50
2023-01-17T00:49:24.362Z,11.00
2023-01-17T00:52:10.879Z,11.97
2023-01-17T00:54:56.669Z,11.20
2023-01-17T00:57:42.878Z,11.67
2023-01-17T01:00:29.988Z,13.93
2023-01-17T01:03:19.627Z,13.23
2023-01-17T01:06:05.451Z,11.07
2023-01-17T01:08:51.839Z,11.87
2023-01-17T01:11:39.912Z,13.03
2023-01-17T01:14:26.890Z,16.03
2023-01-17T01:17:13.063Z,13.00
2023-01-17T01:20:00.318Z,13.07
2023-01-17T01:22:46.227Z,15.20
2023-01-17T01:25:32.404Z,11.10
2023-01-17T01:28:25.089Z,10.90
2023-01-17T01:31:11.269Z,10.40
2023-01-17T01:33:39.926Z,9.03
2023-01-17T01:36:11.158Z,10.93
2023-01-17T01:38:40.081Z,10.43
2023-01-17T01:41:08.720Z,8.50
2023-01-17T01:43:49.383Z,9.60
2023-01-17T01:46:21.832Z,8.90
2023-01-17T01:48:55.393Z,9.87
2023-01-17T01:51:29.103Z,8.20
2023-01-17T01:54:03.158Z,7.27
2023-01-17T01:56:33.043Z,10.50
2023-01-17T01:59:04.354Z,21.70
2023-01-17T02:01:33.079Z,20.30
2023-01-17T02:04:01.945Z,24.07
2023-01-17T02:06:36.473Z,25.80
2023-01-17T02:09:09.592Z,25.00
2023-01-17T02:11:40.356Z,20.43
2023-01-17T02:14:08.828Z,17.17
2023-01-17T02:16:56.178Z,16.17
2023-01-17T02:20:06.628Z,15.43
2023-01-17T02:23:11.722Z,14.20
2023-01-17T02:26:10.386Z,11.80
2023-01-17T02:28:50.648Z,10.20
2023-01-17T02:31:27.166Z,8.40
2023-01-17T02:34:01.799Z,7.83
2023-01-17T02:36:33.939Z,8.77
2023-01-17T02:39:10.259Z,7.23
2023-01-17T02:41:41.979Z,11.50
2023-01-17T02:44:11.274Z,14.33
2023-01-17T02:46:48.337Z,18.07
2023-01-17T02:49:19.230Z,14.03
2023-01-17T02:52:07.350Z,14.40
2023-01-17T02:54:49.494Z,10.73
2023-01-17T02:57:36.890Z,11.03
2023-01-17T03:00:10.940Z,9.47
2023-01-17T03:02:50.048Z,6.70
2023-01-17T03:05:25.491Z,5.50
2023-01-17T03:07:55.210Z,5.37
2023-01-17T03:10:25.416Z,4.60
2023-01-17T03:12:59.084Z,5.60
2023-01-17T03:15:28.263Z,3.73
2023-01-17T03:18:02.923Z,4.30
2023-01-17T03:20:31.598Z,11.27
2023-01-17T03:23:00.087Z,6.97
2023-01-17T03:25:28.932Z,12.17
2023-01-17T03:27:57.529Z,8.33
2023-01-17T03:30:26.513Z,13.00
2023-01-17T03:32:57.959Z,14.90
2023-01-17T03:35:28.353Z,11.70
2023-01-17T03:38:00.188Z,17.23
2023-01-17T03:40:28.657Z,16.07
2023-01-17T03:42:57.479Z,10.77
2023-01-17T03:45:26.023Z,10.20
2023-01-17T03:47:56.904Z,14.07
2023-01-17T03:50:27.245Z,12.47
2023-01-17T03:52:56.060Z,14.80
2023-01-17T03:55:24.528Z,14.67
2023-01-17T03:57:53.107Z,13.30
2023-01-17T04:00:22.671Z,11.57
2023-01-17T04:02:51.601Z,11.43
2023-01-17T04:05:20.180Z,16.57
2023-01-17T04:07:51.701Z,14.73
2023-01-17T04:10:20.480Z,12.27
2023-01-17T04:12:49.380Z,11.10
2023-01-17T04:15:17.970Z,15.17
2023-01-17T04:17:46.530Z,18.43
2023-01-17T04:20:18.343Z,21.27
2023-01-17T04:22:47.120Z,21.00
2023-01-17T04:25:17.146Z,19.17
2023-01-17T04:27:45.730Z,18.20
2023-01-17T04:30:14.698Z,20.13
2023-01-17T04:32:43.196Z,22.80
2023-01-17T04:35:12.118Z,22.23
2023-01-17T04:37:40.873Z,25.13
2023-01-17T04:40:11.071Z,26.40
2023-01-17T04:42:41.034Z,20.80
2023-01-17T04:45:10.387Z,14.20
2023-01-17T04:47:38.886Z,17.83
2023-01-17T04:50:08.372Z,14.73
2023-01-17T04:52:36.902Z,19.80
2023-01-17T04:55:06.295Z,16.37
2023-01-17T04:57:34.834Z,22.17
2023-01-17T05:00:05.220Z,20.47
2023-01-17T05:02:33.957Z,15.87
2023-01-17T05:05:02.896Z,11.53
2023-01-17T05:07:31.403Z,15.23
2023-01-17T05:10:01.080Z,15.07
2023-01-17T05:12:30.000Z,13.47
2023-01-17T05:14:58.801Z,12.80
2023-01-17T05:17:28.790Z,13.97
2023-01-17T05:19:57.234Z,14.23
2023-01-17T05:22:27.648Z,16.50
2023-01-17T05:24:56.203Z,17.00
2023-01-17T05:27:25.159Z,18.27
2023-01-17T05:29:53.875Z,33.43
2023-01-17T05:32:22.381Z,20.43
2023-01-17T05:34:52.348Z,27.67
2023-01-17T05:37:20.942Z,32.10
2023-01-17T05:39:49.441Z,26.30
2023-01-17T05:42:19.851Z,30.63
2023-01-17T05:44:48.696Z,29.40
2023-01-17T05:47:17.163Z,23.03
2023-01-17T05:49:46.038Z,20.80
2023-01-17T05:52:16.122Z,23.93
2023-01-17T05:54:44.935Z,16.73
2023-01-17T05:57:13.477Z,22.13
2023-01-17T05:59:42.323Z,23.33
2023-01-17T06:02:10.926Z,23.90
2023-01-17T06:04:39.504Z,23.30
2023-01-17T06:07:08.086Z,30.27
2023-01-17T06:09:38.324Z,25.43
2023-01-17T06:12:07.422Z,21.67
2023-01-17T06:14:35.913Z,24.90
2023-01-17T06:17:04.892Z,28.97
2023-01-17T06:19:33.434Z,25.30
2023-01-17T06:22:01.936Z,19.93
2023-01-17T06:24:30.787Z,24.13
2023-01-17T06:27:00.909Z,21.53
2023-01-17T06:29:29.492Z,19.57
2023-01-17T06:32:00.832Z,17.93
2023-01-17T06:34:30.367Z,19.93
2023-01-17T06:36:59.192Z,20.23
2023-01-17T06:39:27.888Z,18.73
2023-01-17T06:41:56.703Z,19.23
2023-01-17T06:44:26.865Z,24.50
2023-01-17T06:46:55.867Z,20.93
2023-01-17T06:49:24.422Z,23.60
2023-01-17T06:51:52.949Z,21.57
2023-01-17T06:54:21.525Z,19.70
2023-01-17T06:56:50.393Z,19.10
2023-01-17T06:59:18.838Z,21.60
2023-01-17T07:01:48.818Z,18.70
2023-01-17T07:04:17.391Z,17.80
2023-01-17T07:06:46.229Z,23.23
2023-01-17T07:09:14.767Z,21.37
2023-01-17T07:11:45.474Z,20.40
2023-01-17T07:14:15.483Z,21.53
2023-01-17T07:16:46.281Z,16.67
2023-01-17T07:19:16.524Z,20.87
2023-01-17T07:21:45.379Z,27.13
2023-01-17T07:24:14.213Z,26.77
2023-01-17T07:26:43.816Z,22.90
2023-01-17T07:29:12.310Z,25.43
2023-01-17T07:31:41.064Z,20.87
2023-01-17T07:34:09.795Z,23.93
2023-01-17T07:36:39.807Z,21.47
2023-01-17T07:39:08.359Z,23.03
2023-01-17T07:41:41.488Z,24.53
2023-01-17T07:44:11.600Z,35.27
2023-01-17T07:46:40.614Z,57.70
2023-01-17T07:49:09.160Z,35.70
2023-01-17T07:51:39.163Z,28.27
2023-01-17T07:54:07.690Z,22.77
2023-01-17T07:56:36.553Z,27.70
2023-01-17T07:59:05.116Z,23.63
2023-01-17T08:01:33.861Z,64.53
2023-01-17T08:04:02.463Z,183.07
2023-01-17T08:06:31.572Z,99.03
2023-01-17T08:09:01.625Z,107.60
2023-01-17T08:11:30.466Z,73.67
2023-01-17T08:13:59.929Z,117.07
2023-01-17T08:16:30.008Z,86.13
2023-01-17T08:18:58.764Z,161.53
2023-01-17T08:21:27.628Z,59.97
2023-01-17T08:23:56.127Z,46.13
2023-01-17T08:26:26.138Z,33.17
2023-01-17T08:28:57.535Z,35.77
2023-01-17T08:31:26.167Z,33.90
2023-01-17T08:33:54.727Z,38.03
2023-01-17T08:36:25.865Z,39.00
2023-01-17T08:38:54.451Z,32.23
2023-01-17T08:41:23.254Z,33.80
2023-01-17T08:43:53.809Z,35.23
2023-01-17T08:46:23.097Z,39.77
2023-01-17T08:48:55.946Z,36.27
2023-01-17T08:51:26.508Z,35.47
2023-01-17T08:53:56.485Z,38.73
2023-01-17T08:56:26.109Z,41.83
2023-01-17T08:58:56.118Z,44.20
2023-01-17T09:01:24.913Z,41.00
2023-01-17T09:03:53.722Z,48.30
2023-01-17T09:06:22.801Z,52.50
2023-01-17T09:08:55.018Z,43.10
2023-01-17T09:11:23.588Z,41.10
2023-01-17T09:13:52.147Z,45.00
2023-01-17T09:16:22.662Z,69.33
2023-01-17T09:18:54.549Z,55.60
2023-01-17T09:21:23.432Z,37.80
2023-01-17T09:23:52.342Z,50.43
2023-01-17T09:26:22.857Z,42.03
2023-01-17T09:28:51.835Z,56.87
2023-01-17T09:31:24.086Z,130.13
2023-01-17T09:33:53.406Z,68.17
2023-01-17T09:36:22.241Z,61.47
2023-01-17T09:38:50.813Z,66.73
2023-01-17T09:41:27.815Z,43.23
2023-01-17T09:44:02.424Z,38.87
2023-01-17T09:46:38.855Z,35.23
2023-01-17T09:49:10.856Z,33.10
2023-01-17T09:51:39.604Z,34.73
2023-01-17T09:54:11.094Z,35.03
2023-01-17T09:56:49.096Z,32.63
2023-01-17T09:59:33.196Z,30.77
2023-01-17T10:02:26.016Z,33.83
2023-01-17T10:05:12.560Z,35.63
2023-01-17T10:07:52.815Z,30.97
2023-01-17T10:10:36.316Z,35.30
2023-01-17T10:13:14.839Z,33.53
2023-01-17T10:16:01.460Z,32.53
2023-01-17T10:18:54.048Z,28.60
2023-01-17T10:21:33.141Z,29.03
2023-01-17T10:24:33.237Z,30.03
2023-01-17T10:27:03.576Z,31.20
2023-01-17T10:29:36.512Z,30.33
2023-01-17T10:32:05.794Z,29.43
2023-01-17T10:34:38.826Z,29.87
2023-01-17T10:37:20.923Z,26.77
2023-01-17T10:39:51.459Z,24.47
2023-01-17T10:42:27.435Z,25.87
2023-01-17T10:45:05.655Z,30.47
2023-01-17T10:47:40.735Z,25.53
2023-01-17T10:50:15.582Z,28.87
2023-01-17T10:52:53.017Z,27.17
2023-01-17T10:55:34.419Z,29.87
2023-01-17T10:58:05.097Z,32.07
2023-01-17T11:00:44.361Z,29.97
2023-01-17T11:03:16.511Z,26.30
2023-01-17T11:05:46.639Z,28.53
2023-01-17T11:08:16.206Z,25.27
2023-01-17T11:10:47.321Z,31.67
2023-01-17T11:13:37.482Z,28.37
2023-01-17T11:16:10.195Z,22.97
2023-01-17T11:18:41.175Z,24.73
2023-01-17T11:21:17.880Z,23.70
2023-01-17T11:23:48.167Z,23.50
2023-01-17T11:26:26.445Z,21.37
2023-01-17T11:29:15.345Z,28.77
2023-01-17T11:31:44.097Z,22.47
2023-01-17T11:34:18.075Z,25.10
2023-01-17T11:36:49.440Z,22.40
2023-01-17T11:39:27.706Z,19.23
2023-01-17T11:41:57.203Z,22.40
2023-01-17T11:44:27.890Z,19.40
2023-01-17T11:47:19.414Z,20.13
2023-01-17T11:49:50.069Z,19.03
2023-01-17T11:52:27.476Z,19.70
2023-01-17T11:54:57.287Z,20.10
2023-01-17T11:57:29.490Z,21.37
2023-01-17T12:00:14.374Z,30.70
2023-01-17T12:02:59.785Z,21.87
2023-01-17T12:05:45.070Z,16.67
2023-01-17T12:08:25.330Z,18.70
2023-01-17T12:11:03.835Z,19.77
2023-01-17T12:14:03.137Z,25.87
2023-01-17T12:16:52.279Z,21.07
2023-01-17T12:19:42.633Z,40.23
2023-01-17T12:22:29.352Z,26.83
2023-01-17T12:25:15.145Z,32.93
2023-01-17T12:27:54.091Z,22.90
2023-01-17T12:30:47.628Z,20.33
2023-01-17T12:33:23.440Z,18.07
2023-01-17T12:35:57.124Z,23.40
2023-01-17T12:38:32.886Z,37.50
2023-01-17T12:41:08.938Z,18.83
2023-01-17T12:43:41.362Z,25.17
2023-01-17T12:46:21.106Z,23.27
2023-01-17T12:48:53.972Z,18.37
2023-01-17T12:51:29.834Z,20.90
2023-01-17T12:54:03.491Z,16.37
2023-01-17T12:56:37.252Z,17.37
2023-01-17T12:59:16.715Z,19.37
2023-01-17T13:01:57.972Z,29.77
2023-01-17T13:04:33.427Z,16.93
2023-01-17T13:07:11.700Z,13.30
2023-01-17T13:09:47.594Z,15.47
2023-01-17T13:12:20.468Z,15.50
2023-01-17T13:14:49.820Z,14.60
2023-01-17T13:17:33.048Z,18.97
2023-01-17T13:20:05.175Z,16.77
2023-01-17T13:22:37.692Z,15.60
2023-01-17T13:25:16.985Z,14.30
2023-01-17T13:28:03.046Z,14.43
2023-01-17T13:30:51.862Z,13.30
2023-01-17T13:33:38.803Z,14.87
2023-01-17T13:36:30.100Z,13.50
2023-01-17T13:39:18.428Z,12.53
2023-01-17T13:41:52.196Z,10.80
2023-01-17T13:44:26.612Z,11.83
2023-01-17T13:47:04.745Z,15.20
2023-01-17T13:49:36.013Z,13.97
2023-01-17T13:52:10.825Z,12.17
2023-01-17T13:54:47.752Z,9.67
2023-01-17T13:57:44.022Z,12.80
2023-01-17T14:01:00.653Z,11.77
2023-01-17T14:04:06.259Z,15.20
2023-01-17T14:06:44.415Z,10.10
2023-01-17T14:09:18.192Z,15.40
2023-01-17T14:11:57.629Z,15.37
2023-01-17T14:14:57.281Z,13.13
2023-01-17T14:17:37.437Z,18.97
2023-01-17T14:20:51.968Z,14.57
2023-01-17T14:23:49.743Z,11.83
2023-01-17T14:26:49.926Z,16.03
2023-01-17T14:29:58.996Z,13.20
2023-01-17T14:32:31.665Z,11.67
2023-01-17T14:35:00.867Z,17.10
2023-01-17T14:37:50.746Z,18.53
2023-01-17T14:40:22.191Z,23.97
2023-01-17T14:42:59.595Z,20.97
2023-01-17T14:45:30.552Z,22.63
2023-01-17T14:48:00.949Z,24.50
2023-01-17T14:50:36.629Z,22.23
2023-01-17T14:53:28.368Z,19.77
2023-01-17T14:56:00.892Z,22.80
2023-01-17T14:58:32.067Z,14.50
2023-01-17T15:01:03.936Z,19.67
2023-01-17T15:03:42.656Z,22.93
2023-01-17T15:06:14.337Z,28.30
2023-01-17T15:08:44.954Z,22.10
2023-01-17T15:11:20.427Z,22.57
2023-01-17T15:13:52.091Z,19.00
2023-01-17T15:16:25.798Z,16.40
2023-01-17T15:18:55.681Z,15.77
2023-01-17T15:21:26.811Z,22.97
2023-01-17T15:23:59.034Z,24.80
2023-01-17T15:26:30.055Z,23.07
2023-01-17T15:29:05.620Z,32.70
2023-01-17T15:31:43.509Z,22.30
2023-01-17T15:34:24.207Z,18.73
2023-01-17T15:36:53.716Z,19.67
2023-01-17T15:39:27.962Z,19.77
2023-01-17T15:41:58.712Z,18.13
2023-01-17T15:44:49.733Z,19.27
2023-01-17T15:47:33.344Z,20.00
2023-01-17T15:50:04.070Z,14.47
2023-01-17T15:52:33.961Z,41.03
2023-01-17T15:55:14.543Z,59.37
2023-01-17T15:57:49.194Z,48.67
2023-01-17T16:00:24.305Z,100.53
2023-01-17T16:02:57.452Z,81.00
2023-01-17T16:05:43.999Z,77.17
2023-01-17T16:08:35.877Z,67.40
2023-01-17T16:11:08.069Z,86.40
2023-01-17T16:13:39.535Z,71.77
2023-01-17T16:16:14.253Z,73.50
2023-01-17T16:18:44.565Z,68.77
2023-01-17T16:21:25.510Z,67.50
2023-01-17T16:23:54.639Z,47.37
2023-01-17T16:26:25.426Z,40.17
2023-01-17T16:28:54.922Z,36.07
2023-01-17T16:31:24.017Z,32.83
2023-01-17T16:33:52.913Z,34.50
2023-01-17T16:36:23.233Z,34.93
2023-01-17T16:38:53.467Z,26.40
2023-01-17T16:41:25.634Z,29.60
2023-01-17T16:44:02.640Z,25.27
2023-01-17T16:46:32.640Z,42.87
2023-01-17T16:49:02.979Z,54.10
2023-01-17T16:51:32.136Z,39.83
2023-01-17T16:54:02.029Z,57.80
2023-01-17T16:56:32.543Z,37.13
2023-01-17T16:59:01.348Z,31.03
2023-01-17T17:01:30.979Z,29.57
2023-01-17T17:03:59.953Z,30.37
2023-01-17T17:06:29.034Z,29.87
2023-01-17T17:09:00.133Z,34.17
2023-01-17T17:11:29.113Z,37.23
2023-01-17T17:13:59.459Z,37.03
2023-01-17T17:16:31.377Z,47.90
2023-01-17T17:19:02.422Z,59.23
2023-01-17T17:21:32.862Z,59.53
2023-01-17T17:24:04.703Z,86.83
2023-01-17T17:26:35.293Z,80.33
2023-01-17T17:29:10.670Z,72.57
2023-01-17T17:31:40.286Z,71.57
2023-01-17T17:34:11.974Z,60.93
2023-01-17T17:36:41.653Z,42.67
2023-01-17T17:39:15.031Z,47.43
2023-01-17T17:41:46.089Z,37.93
2023-01-17T17:44:18.095Z,33.37
2023-01-17T17:46:49.657Z,33.03
2023-01-17T17:49:19.994Z,24.47
2023-01-17T17:51:49.049Z,18.60
2023-01-17T17:54:19.584Z,15.00
2023-01-17T17:56:49.292Z,14.30
2023-01-17T17:59:19.941Z,10.60
2023-01-17T18:01:49.726Z,17.57
2023-01-17T18:04:19.284Z,19.83
2023-01-17T18:06:48.403Z,15.17
2023-01-17T18:09:17.702Z,9.53
2023-01-17T18:11:47.105Z,10.53
2023-01-17T18:14:18.835Z,13.27
2023-01-17T18:16:51.017Z,9.77
2023-01-17T18:19:23.336Z,11.47
2023-01-17T18:21:55.701Z,12.13
2023-01-17T18:24:26.145Z,13.30
2023-01-17T18:26:56.214Z,10.73
2023-01-17T18:29:26.356Z,12.67
2023-01-17T18:31:57.306Z,14.17
2023-01-17T18:34:29.571Z,14.47
2023-01-17T18:36:59.650Z,14.80
2023-01-17T18:39:31.450Z,13.93
2023-01-17T18:42:00.798Z,12.93
2023-01-17T18:44:30.321Z,11.10
2023-01-17T18:47:05.779Z,12.93
2023-01-17T18:49:36.178Z,12.37
2023-01-17T18:52:08.352Z,10.40
2023-01-17T18:54:37.660Z,20.83
2023-01-17T18:57:06.598Z,25.43
2023-01-17T18:59:35.874Z,24.80
2023-01-17T19:02:06.613Z,15.30
2023-01-17T19:04:38.100Z,18.87
2023-01-17T19:07:07.175Z,28.23
2023-01-17T19:09:36.463Z,38.03
2023-01-17T19:12:06.043Z,28.93
2023-01-17T19:14:35.210Z,28.40
2023-01-17T19:17:05.935Z,22.80
2023-01-17T19:19:35.088Z,23.67
2023-01-17T19:22:04.261Z,24.10
2023-01-17T19:24:36.093Z,24.70
2023-01-17T19:27:07.239Z,22.40
2023-01-17T19:29:36.398Z,22.73
2023-01-17T19:32:10.182Z,23.30
2023-01-17T19:34:39.343Z,29.10
2023-01-17T19:37:10.664Z,25.03
2023-01-17T19:39:39.840Z,22.97
2023-01-17T19:42:15.763Z,18.47
2023-01-17T19:44:44.834Z,27.43
2023-01-17T19:47:15.225Z,24.03
2023-01-17T19:49:44.633Z,42.37
2023-01-17T19:52:13.771Z,50.47
2023-01-17T19:54:42.760Z,49.03
2023-01-17T19:57:11.686Z,45.53
2023-01-17T19:59:40.762Z,51.03
2023-01-17T20:02:11.794Z,64.37
2023-01-17T20:04:42.412Z,64.03
2023-01-17T20:07:11.760Z,37.90
2023-01-17T20:09:40.960Z,33.33
2023-01-17T20:12:11.260Z,30.70
2023-01-17T20:14:40.427Z,31.50
2023-01-17T20:17:09.777Z,23.53
2023-01-17T20:19:39.971Z,28.73
2023-01-17T20:22:12.550Z,27.70
2023-01-17T20:24:44.150Z,27.57
2023-01-17T20:27:13.277Z,28.30
2023-01-17T20:29:42.602Z,28.90
2023-01-17T20:32:12.215Z,27.47
2023-01-17T20:34:41.499Z,25.63
2023-01-17T20:37:15.952Z,33.10
2023-01-17T20:39:45.094Z,38.23
2023-01-17T20:42:14.697Z,37.90
2023-01-17T20:44:43.744Z,52.63
2023-01-17T20:47:12.689Z,43.53
2023-01-17T20:49:43.583Z,39.93
2023-01-17T20:52:15.836Z,43.30
2023-01-17T20:54:44.835Z,46.93
2023-01-17T20:57:14.350Z,41.90
2023-01-17T20:59:43.299Z,43.23
2023-01-17T21:02:16.380Z,32.70
2023-01-17T21:04:45.774Z,35.43
2023-01-17T21:07:17.570Z,29.60
2023-01-17T21:09:46.709Z,31.83
2023-01-17T21:12:19.077Z,33.73
2023-01-17T21:14:48.760Z,32.20
2023-01-17T21:17:19.577Z,22.80
2023-01-17T21:19:50.846Z,25.53
2023-01-17T21:22:21.116Z,38.07
2023-01-17T21:24:49.998Z,29.53
2023-01-17T21:27:19.150Z,33.00
2023-01-17T21:29:48.338Z,27.83
2023-01-17T21:32:17.566Z,21.57
2023-01-17T21:34:47.567Z,28.80
2023-01-17T21:37:16.698Z,21.93
2023-01-17T21:39:51.628Z,30.97
2023-01-17T21:42:20.441Z,19.03
2023-01-17T21:44:51.791Z,15.80
2023-01-17T21:47:20.821Z,16.10
2023-01-17T21:49:49.985Z,13.60
2023-01-17T21:52:24.481Z,22.43
2023-01-17T21:55:12.338Z,20.70
2023-01-17T21:57:59.405Z,21.90
2023-01-17T22:00:28.587Z,17.77
2023-01-17T22:02:58.929Z,20.53
2023-01-17T22:05:28.262Z,16.70
2023-01-17T22:08:15.862Z,26.27
2023-01-17T22:10:49.133Z,33.40
2023-01-17T22:13:19.698Z,30.70
2023-01-17T22:16:00.041Z,32.77
2023-01-17T22:18:29.298Z,31.87
2023-01-17T22:21:01.602Z,31.43
2023-01-17T22:23:31.191Z,25.03
2023-01-17T22:26:06.930Z,25.93
2023-01-17T22:28:36.210Z,26.20
2023-01-17T22:31:10.996Z,25.37
2023-01-17T22:33:41.055Z,33.37
2023-01-17T22:36:11.240Z,26.63
2023-01-17T22:38:41.480Z,25.90
2023-01-17T22:41:13.591Z,27.00
2023-01-17T22:43:44.872Z,27.63
2023-01-17T22:46:15.571Z,26.07
2023-01-17T22:48:44.648Z,24.90
2023-01-17T22:51:15.342Z,20.70
2023-01-17T22:53:45.241Z,21.03
2023-01-17T22:56:18.167Z,27.40
2023-01-17T22:58:48.926Z,22.67
2023-01-17T23:01:19.883Z,28.80
2023-01-17T23:03:52.011Z,25.57
2023-01-17T23:06:23.009Z,25.80
2023-01-17T23:08:53.839Z,24.17
2023-01-17T23:11:42.987Z,21.07
2023-01-17T23:14:17.308Z,22.70
2023-01-17T23:17:08.141Z,23.57
2023-01-17T23:19:38.547Z,25.93
2023-01-17T23:22:19.390Z,22.83
2023-01-17T23:24:54.058Z,23.10
2023-01-17T23:27:44.351Z,20.70
2023-01-17T23:30:15.535Z,23.10
2023-01-17T23:32:51.620Z,24.17
2023-01-17T23:35:22.472Z,18.00
2023-01-17T23:38:08.959Z,18.03
2023-01-17T23:40:39.700Z,19.07
2023-01-17T23:43:25.721Z,27.77
2023-01-17T23:45:55.181Z,25.17
2023-01-17T23:48:25.850Z,21.73
2023-01-17T23:50:59.094Z,24.73
2023-01-17T23:53:28.168Z,21.00
2023-01-17T23:55:59.693Z,26.10
2023-01-17T23:58:29.978Z,25.67
